GB-0555 weather

Brown Shutters Farm Airstrip
England, United Kingdom

Public forecast

Using degrees Celsius for public forecast. Weather courtesy of forecast.io.

METAR (pilot weather report)

Report is more than 6 hours old.

Closest report is Colerne Airport, 7.7 nm (14.3 km) N. Retrieved 2019/02/14 22:50 UTC (7 months ago):

EGUO 142250Z 06001KT CAVOK 01/00 Q1029 BLU NOSIG

TAF (pilot weather forecast)

Closest forecast is Bristol Airport, 16.0 nm (29.6 km) WNW. Retrieved 2019/09/23 12:00 UTC (14 minutes ago):

TAF EGGD 231100Z 2312/2412 18013KT 9999 SCT020 BECMG 2312/2315 8000 BKN010 TEMPO 2313/2318 17016G26KT 3000 RADZ BKN006 PROB40 TEMPO 2313/2318 1200 +RA BKN003 TEMPO 2318/2403 4000 BR BKN003 PROB40 TEMPO 2318/2403 0500 FG BKN001 TEMPO 2403/2408 3000 +SHRA BKN006 PROB30 TEMPO 2403/2408 18018G28KT +TSGR BKN002 BKN015CB BECMG 2408/2410 26011KT 9999 SCT012 PROB30 TEMPO 2410/2412 7000 SHRA